createdAt,value
2022-12-18T00:00:26.523Z,28.67
2022-12-18T00:03:28.983Z,34.13
2022-12-18T00:06:31.389Z,25.80
2022-12-18T00:09:40.000Z,28.80
2022-12-18T00:12:42.652Z,28.98
2022-12-18T00:15:45.117Z,26.87
2022-12-18T00:18:49.289Z,25.35
2022-12-18T00:21:51.855Z,32.33
2022-12-18T00:24:53.987Z,27.67
2022-12-18T00:27:56.580Z,23.23
2022-12-18T00:31:03.312Z,27.10
2022-12-18T00:34:05.832Z,31.30
2022-12-18T00:37:08.086Z,26.12
2022-12-18T00:40:11.238Z,27.57
2022-12-18T00:43:13.339Z,26.90
2022-12-18T00:46:15.696Z,26.77
2022-12-18T00:49:20.205Z,28.25
2022-12-18T00:52:22.951Z,27.80
2022-12-18T00:55:25.127Z,28.62
2022-12-18T00:58:27.536Z,22.35
2022-12-18T01:01:29.846Z,23.80
2022-12-18T01:04:33.500Z,30.62
2022-12-18T01:07:36.225Z,22.83
2022-12-18T01:10:42.426Z,28.75
2022-12-18T01:13:44.971Z,33.17
2022-12-18T01:16:47.444Z,21.77
2022-12-18T01:19:49.779Z,22.27
2022-12-18T01:22:52.199Z,27.13
2022-12-18T01:25:54.467Z,25.60
2022-12-18T01:28:57.727Z,32.20
2022-12-18T01:32:00.019Z,26.05
2022-12-18T01:35:02.691Z,28.63
2022-12-18T01:38:04.766Z,26.75
2022-12-18T01:41:09.250Z,19.02
2022-12-18T01:44:48.687Z,29.98
2022-12-18T01:47:55.772Z,28.45
2022-12-18T01:50:57.945Z,21.10
2022-12-18T01:54:00.809Z,24.37
2022-12-18T01:57:03.193Z,24.97
2022-12-18T02:00:11.896Z,26.55
2022-12-18T02:03:15.144Z,23.38
2022-12-18T02:06:33.209Z,23.25
2022-12-18T02:09:45.484Z,26.42
2022-12-18T02:13:12.035Z,30.63
2022-12-18T02:16:20.461Z,25.42
2022-12-18T02:19:48.239Z,19.73
2022-12-18T02:23:11.868Z,20.02
2022-12-18T02:26:22.962Z,23.23
2022-12-18T02:29:57.936Z,23.25
2022-12-18T02:33:03.353Z,27.23
2022-12-18T02:36:06.786Z,29.05
2022-12-18T02:39:12.656Z,31.73
2022-12-18T02:42:17.232Z,29.30
2022-12-18T02:45:19.800Z,32.10
2022-12-18T02:48:29.345Z,23.30
2022-12-18T02:51:44.471Z,25.27
2022-12-18T02:55:18.553Z,22.33
2022-12-18T03:01:48.575Z,20.55
2022-12-18T03:05:03.936Z,32.72
2022-12-18T03:08:13.644Z,26.55
2022-12-18T03:11:16.473Z,24.90
2022-12-18T03:14:22.337Z,24.67
2022-12-18T03:17:28.217Z,26.60
2022-12-18T03:20:35.043Z,28.55
2022-12-18T03:23:44.897Z,22.92
2022-12-18T03:26:53.224Z,22.65
2022-12-18T03:30:08.755Z,25.33
2022-12-18T03:33:28.456Z,25.90
2022-12-18T03:36:31.210Z,23.87
2022-12-18T03:39:35.713Z,26.40
2022-12-18T03:42:56.667Z,26.20
2022-12-18T03:46:09.104Z,27.48
2022-12-18T03:49:26.733Z,29.63
2022-12-18T03:52:46.268Z,34.03
2022-12-18T03:55:51.095Z,36.40
2022-12-18T03:58:55.279Z,22.55
2022-12-18T04:02:00.787Z,25.85
2022-12-18T04:05:06.964Z,23.52
2022-12-18T04:08:10.090Z,37.38
2022-12-18T04:11:13.423Z,26.80
2022-12-18T04:14:18.245Z,29.45
2022-12-18T04:17:23.396Z,30.15
2022-12-18T04:23:29.288Z,22.87
2022-12-18T04:26:32.020Z,31.98
2022-12-18T04:29:35.638Z,24.25
2022-12-18T04:32:37.816Z,28.70
2022-12-18T04:35:42.630Z,32.88
2022-12-18T04:38:44.926Z,37.55
2022-12-18T04:41:47.769Z,31.83
2022-12-18T04:44:49.946Z,26.08
2022-12-18T04:47:52.344Z,34.35
2022-12-18T04:50:54.426Z,34.90
2022-12-18T04:53:56.945Z,24.27
2022-12-18T04:56:59.131Z,29.23
2022-12-18T05:00:02.438Z,22.10
2022-12-18T05:03:04.747Z,26.42
2022-12-18T05:06:08.250Z,29.65
2022-12-18T05:09:10.358Z,34.42
2022-12-18T05:12:12.777Z,25.50
2022-12-18T05:15:14.913Z,33.78
2022-12-18T05:18:17.340Z,30.02
2022-12-18T05:21:19.448Z,31.30
2022-12-18T05:24:21.860Z,29.05
2022-12-18T05:27:24.034Z,24.37
2022-12-18T05:30:26.543Z,34.30
2022-12-18T05:33:31.998Z,26.20
2022-12-18T05:36:34.391Z,24.50
2022-12-18T05:39:36.489Z,24.63
2022-12-18T05:42:38.951Z,27.73
2022-12-18T05:45:42.234Z,30.52
2022-12-18T05:48:46.027Z,24.73
2022-12-18T05:51:48.264Z,36.50
2022-12-18T05:54:50.724Z,28.20
2022-12-18T05:57:52.877Z,29.63
2022-12-18T06:00:55.364Z,26.07
2022-12-18T06:03:57.870Z,36.30
2022-12-18T06:07:00.192Z,30.55
2022-12-18T06:10:02.857Z,32.60
2022-12-18T06:13:05.639Z,26.25
2022-12-18T06:16:09.179Z,35.75
2022-12-18T06:19:16.504Z,27.05
2022-12-18T06:22:19.182Z,30.27
2022-12-18T06:25:21.394Z,35.55
2022-12-18T06:28:23.905Z,33.50
2022-12-18T06:31:26.526Z,26.25
2022-12-18T06:34:29.037Z,29.45
2022-12-18T06:37:33.940Z,32.97
2022-12-18T06:40:39.988Z,25.75
2022-12-18T06:43:43.011Z,31.52
2022-12-18T06:46:45.701Z,27.67
2022-12-18T06:49:47.783Z,30.25
2022-12-18T06:52:50.172Z,34.88
2022-12-18T06:55:52.368Z,28.33
2022-12-18T06:58:54.909Z,40.97
2022-12-18T07:01:57.222Z,29.55
2022-12-18T07:04:59.845Z,34.05
2022-12-18T07:08:01.968Z,25.02
2022-12-18T07:11:05.899Z,32.50
2022-12-18T07:14:07.979Z,29.02
2022-12-18T07:17:10.547Z,31.62
2022-12-18T07:20:12.699Z,28.65
2022-12-18T07:23:15.180Z,25.75
2022-12-18T07:26:20.623Z,31.08
2022-12-18T07:29:23.077Z,24.95
2022-12-18T07:32:25.236Z,26.98
2022-12-18T07:35:27.682Z,32.05
2022-12-18T07:38:30.141Z,31.77
2022-12-18T07:41:33.815Z,28.58
2022-12-18T07:44:40.380Z,33.20
2022-12-18T07:47:42.793Z,25.98
2022-12-18T07:50:44.905Z,28.38
2022-12-18T07:53:49.449Z,29.15
2022-12-18T07:56:54.490Z,22.00
2022-12-18T07:59:56.927Z,30.45
2022-12-18T08:02:59.226Z,37.00
2022-12-18T08:06:07.592Z,33.78
2022-12-18T08:09:11.109Z,30.70
2022-12-18T08:12:13.481Z,34.38
2022-12-18T08:15:15.731Z,28.25
2022-12-18T08:18:18.095Z,40.80
2022-12-18T08:21:24.116Z,27.33
2022-12-18T08:24:26.704Z,30.90
2022-12-18T08:27:29.899Z,34.90
2022-12-18T08:30:32.830Z,29.15
2022-12-18T08:33:36.367Z,27.45
2022-12-18T08:36:38.874Z,32.35
2022-12-18T08:39:40.969Z,29.77
2022-12-18T08:43:02.056Z,28.73
2022-12-18T08:46:04.331Z,27.05
2022-12-18T08:49:08.219Z,37.50
2022-12-18T08:55:12.614Z,32.35
2022-12-18T08:58:14.732Z,30.42
2022-12-18T09:01:17.396Z,33.83
2022-12-18T09:04:19.643Z,33.10
2022-12-18T09:07:22.037Z,40.90
2022-12-18T09:10:24.190Z,36.35
2022-12-18T09:13:26.698Z,28.60
2022-12-18T09:16:32.235Z,33.03
2022-12-18T09:19:35.281Z,31.08
2022-12-18T09:22:37.397Z,35.75
2022-12-18T09:25:40.523Z,35.05
2022-12-18T09:28:44.069Z,27.37
2022-12-18T09:31:46.547Z,33.33
2022-12-18T09:34:48.707Z,34.45
2022-12-18T09:37:51.176Z,34.40
2022-12-18T09:40:58.548Z,32.97
2022-12-18T09:44:06.745Z,27.50
2022-12-18T09:47:16.006Z,30.70
2022-12-18T09:50:33.657Z,35.65
2022-12-18T09:53:42.602Z,35.15
2022-12-18T09:56:45.284Z,32.65
2022-12-18T09:59:52.926Z,34.47
2022-12-18T10:03:02.561Z,34.78
2022-12-18T10:06:08.095Z,34.30
2022-12-18T10:09:23.438Z,27.73
2022-12-18T10:12:38.766Z,36.47
2022-12-18T10:16:13.881Z,30.35
2022-12-18T10:19:24.001Z,32.67
2022-12-18T10:22:44.685Z,37.30
2022-12-18T10:26:01.388Z,35.53
2022-12-18T10:29:12.051Z,27.62
2022-12-18T10:32:18.105Z,33.03
2022-12-18T10:35:26.721Z,33.58
2022-12-18T10:38:32.637Z,35.47
2022-12-18T10:41:34.859Z,36.42
2022-12-18T10:44:37.276Z,28.17
2022-12-18T10:47:57.490Z,35.08
2022-12-18T10:51:10.813Z,37.50
2022-12-18T10:54:24.928Z,38.28
2022-12-18T10:57:27.246Z,32.90
2022-12-18T11:00:31.634Z,33.42
2022-12-18T11:03:45.397Z,36.22
2022-12-18T11:07:14.127Z,39.35
2022-12-18T11:10:21.704Z,31.15
2022-12-18T11:13:27.163Z,36.20
2022-12-18T11:16:32.152Z,35.58
2022-12-18T11:19:40.646Z,28.75
2022-12-18T11:22:43.518Z,27.02
2022-12-18T11:25:54.628Z,33.35
2022-12-18T11:29:11.888Z,28.30
2022-12-18T11:32:38.097Z,24.87
2022-12-18T11:35:40.445Z,31.33
2022-12-18T11:38:45.590Z,35.33
2022-12-18T11:42:10.664Z,28.65
2022-12-18T11:45:14.126Z,28.70
2022-12-18T11:51:44.409Z,26.30
2022-12-18T11:54:46.825Z,33.00
2022-12-18T11:58:02.773Z,25.70
2022-12-18T12:01:23.600Z,30.05
2022-12-18T12:04:49.977Z,27.70
2022-12-18T12:08:01.141Z,27.62
2022-12-18T12:11:34.498Z,29.40
2022-12-18T12:14:56.345Z,29.90
2022-12-18T12:19:01.344Z,31.08
2022-12-18T12:22:17.854Z,31.70
2022-12-18T12:25:30.456Z,32.05
2022-12-18T12:28:58.628Z,27.60
2022-12-18T12:32:13.494Z,32.60
2022-12-18T12:35:43.284Z,28.50
2022-12-18T12:38:52.345Z,31.37
2022-12-18T12:42:13.812Z,25.35
2022-12-18T12:45:27.442Z,29.77
2022-12-18T12:48:39.082Z,34.35
2022-12-18T12:51:46.147Z,32.13
2022-12-18T12:54:50.765Z,33.65
2022-12-18T12:58:06.655Z,36.70
2022-12-18T13:01:27.663Z,38.15
2022-12-18T13:04:33.148Z,31.42
2022-12-18T13:07:41.344Z,34.28
2022-12-18T13:10:43.863Z,35.00
2022-12-18T13:13:50.634Z,36.92
2022-12-18T13:17:16.633Z,36.15
2022-12-18T13:20:18.878Z,37.58
2022-12-18T13:23:21.222Z,38.78
2022-12-18T13:26:28.764Z,36.80
2022-12-18T13:29:47.429Z,36.22
2022-12-18T13:33:15.413Z,43.60
2022-12-18T13:36:29.094Z,38.58
2022-12-18T13:43:14.127Z,37.97
2022-12-18T13:46:22.108Z,44.88
2022-12-18T13:49:40.692Z,44.03
2022-12-18T13:52:44.628Z,39.53
2022-12-18T13:55:47.242Z,41.60
2022-12-18T13:59:24.762Z,41.90
2022-12-18T14:02:29.665Z,44.72
2022-12-18T14:05:36.537Z,40.22
2022-12-18T14:08:44.126Z,35.05
2022-12-18T14:11:50.292Z,41.90
2022-12-18T14:14:54.918Z,44.22
2022-12-18T14:18:14.279Z,35.50
2022-12-18T14:21:30.881Z,39.17
2022-12-18T14:24:33.829Z,41.13
2022-12-18T14:27:39.013Z,37.23
2022-12-18T14:30:46.953Z,45.65
2022-12-18T14:33:49.472Z,42.40
2022-12-18T14:36:56.848Z,38.53
2022-12-18T14:40:11.347Z,33.25
2022-12-18T14:43:14.575Z,35.47
2022-12-18T14:46:34.107Z,39.63
2022-12-18T14:49:38.085Z,47.65
2022-12-18T14:55:49.428Z,37.13
2022-12-18T14:58:59.057Z,39.88
2022-12-18T15:02:35.601Z,42.60
2022-12-18T15:05:37.893Z,41.45
2022-12-18T15:08:40.538Z,35.22
2022-12-18T15:11:42.739Z,37.70
2022-12-18T15:14:45.156Z,33.55
2022-12-18T15:17:47.291Z,43.15
2022-12-18T15:21:08.154Z,46.15
2022-12-18T15:24:20.165Z,43.55
2022-12-18T15:27:36.677Z,40.72
2022-12-18T15:30:38.926Z,42.42
2022-12-18T15:34:15.364Z,36.83
2022-12-18T15:37:17.545Z,41.35
2022-12-18T15:40:24.928Z,41.72
2022-12-18T15:43:34.974Z,34.25
2022-12-18T15:46:37.466Z,43.60
2022-12-18T15:49:40.550Z,43.93
2022-12-18T15:52:46.115Z,46.78
2022-12-18T15:56:06.836Z,34.03
2022-12-18T15:59:15.024Z,40.35
2022-12-18T16:02:19.339Z,36.97
2022-12-18T16:05:23.903Z,56.60
2022-12-18T16:08:25.990Z,43.20
2022-12-18T16:11:39.614Z,45.15
2022-12-18T16:14:41.772Z,39.65
2022-12-18T16:17:45.243Z,41.60
2022-12-18T16:20:49.581Z,49.53
2022-12-18T16:23:52.017Z,42.03
2022-12-18T16:26:55.150Z,48.45
2022-12-18T16:29:57.695Z,45.35
2022-12-18T16:33:00.720Z,46.90
2022-12-18T16:36:03.326Z,47.45
2022-12-18T16:39:05.451Z,42.95
2022-12-18T16:42:17.876Z,42.25
2022-12-18T16:45:20.117Z,48.95
2022-12-18T16:48:22.568Z,47.83
2022-12-18T16:51:25.150Z,43.75
2022-12-18T16:54:30.401Z,38.97
2022-12-18T16:57:32.628Z,44.70
2022-12-18T17:00:35.041Z,50.28
2022-12-18T17:03:37.802Z,43.42
2022-12-18T17:06:43.070Z,48.30
2022-12-18T17:09:46.227Z,48.15
2022-12-18T17:12:51.148Z,41.47
2022-12-18T17:15:53.879Z,50.22
2022-12-18T17:18:56.276Z,40.80
2022-12-18T17:21:58.468Z,45.35
2022-12-18T17:25:00.899Z,43.42
2022-12-18T17:28:03.016Z,40.80
2022-12-18T17:31:14.322Z,42.50
2022-12-18T17:34:16.569Z,53.58
2022-12-18T17:37:18.986Z,47.67
2022-12-18T17:40:21.193Z,48.45
2022-12-18T17:43:23.586Z,49.58
2022-12-18T17:46:27.423Z,48.92
2022-12-18T17:49:29.868Z,48.00
2022-12-18T17:52:32.026Z,46.10
2022-12-18T17:55:34.506Z,41.33
2022-12-18T17:58:37.226Z,51.33
2022-12-18T18:01:44.749Z,53.83
2022-12-18T18:04:47.929Z,49.55
2022-12-18T18:07:50.081Z,46.63
2022-12-18T18:10:55.044Z,50.67
2022-12-18T18:14:01.000Z,50.58
2022-12-18T18:17:04.816Z,54.92
2022-12-18T18:20:07.801Z,52.15
2022-12-18T18:23:10.183Z,49.78
2022-12-18T18:26:12.383Z,57.62
2022-12-18T18:29:17.487Z,52.83
2022-12-18T18:32:21.034Z,53.65
2022-12-18T18:35:52.253Z,60.75
2022-12-18T18:38:48.569Z,50.05
2022-12-18T18:41:51.256Z,45.12
2022-12-18T18:44:53.342Z,51.45
2022-12-18T18:47:56.191Z,54.92
2022-12-18T18:51:00.709Z,51.72
2022-12-18T18:54:03.134Z,63.72
2022-12-18T18:57:20.265Z,53.60
2022-12-18T19:00:23.426Z,47.40
2022-12-18T19:03:27.172Z,54.95
2022-12-18T19:06:29.975Z,53.00
2022-12-18T19:09:33.706Z,53.80
2022-12-18T19:12:54.654Z,52.92
2022-12-18T19:16:08.032Z,63.05
2022-12-18T19:19:13.320Z,58.90
2022-12-18T19:22:15.877Z,57.05
2022-12-18T19:25:18.734Z,45.95
2022-12-18T19:28:25.965Z,55.30
2022-12-18T19:31:34.769Z,52.33
2022-12-18T19:34:38.062Z,50.67
2022-12-18T19:37:40.782Z,57.88
2022-12-18T19:40:44.488Z,44.47
2022-12-18T19:43:47.604Z,59.50
2022-12-18T19:46:51.460Z,54.30
2022-12-18T19:49:53.917Z,45.15
2022-12-18T19:52:56.177Z,40.45
2022-12-18T19:55:58.659Z,55.67
2022-12-18T19:59:01.520Z,53.55
2022-12-18T20:02:04.152Z,44.03
2022-12-18T20:05:09.500Z,50.05
2022-12-18T20:08:11.899Z,40.20
2022-12-18T20:11:14.325Z,49.28
2022-12-18T20:14:18.756Z,50.00
2022-12-18T20:17:25.825Z,57.55
2022-12-18T20:20:28.181Z,52.25
2022-12-18T20:23:31.264Z,57.47
2022-12-18T20:26:35.388Z,60.75
2022-12-18T20:29:37.912Z,57.70
2022-12-18T20:32:40.069Z,61.67
2022-12-18T20:35:43.143Z,55.42
2022-12-18T20:38:46.135Z,57.85
2022-12-18T20:41:50.945Z,63.67
2022-12-18T20:44:53.099Z,59.45
2022-12-18T20:47:55.596Z,55.30
2022-12-18T20:51:07.251Z,59.95
2022-12-18T20:54:11.925Z,54.25
2022-12-18T20:57:14.319Z,65.35
2022-12-18T21:00:18.975Z,60.95
2022-12-18T21:03:23.506Z,65.30
2022-12-18T21:06:26.472Z,56.53
2022-12-18T21:09:35.934Z,56.75
2022-12-18T21:12:56.148Z,52.75
2022-12-18T21:16:05.173Z,51.03
2022-12-18T21:19:11.263Z,48.22
2022-12-18T21:22:13.598Z,58.28
2022-12-18T21:25:16.577Z,53.90
2022-12-18T21:28:18.781Z,59.42
2022-12-18T21:31:23.388Z,55.92
2022-12-18T21:34:28.519Z,60.03
2022-12-18T21:37:30.969Z,54.30
2022-12-18T21:40:33.076Z,61.90
2022-12-18T21:43:57.838Z,69.22
2022-12-18T21:47:09.396Z,60.45
2022-12-18T21:50:17.128Z,52.58
2022-12-18T21:53:19.264Z,47.70
2022-12-18T21:56:21.786Z,53.67
2022-12-18T21:59:23.930Z,61.85
2022-12-18T22:02:26.685Z,57.92
2022-12-18T22:05:29.497Z,62.40
2022-12-18T22:08:31.616Z,51.08
2022-12-18T22:11:34.093Z,57.08
2022-12-18T22:14:36.295Z,53.00
2022-12-18T22:17:39.470Z,65.18
2022-12-18T22:20:41.928Z,53.95
2022-12-18T22:23:44.328Z,62.22
2022-12-18T22:26:47.273Z,50.67
2022-12-18T22:30:04.930Z,63.00
2022-12-18T22:33:07.019Z,56.72
2022-12-18T22:36:09.579Z,57.70
2022-12-18T22:39:15.377Z,52.50
2022-12-18T22:42:17.860Z,61.88
2022-12-18T22:45:20.533Z,60.00
2022-12-18T22:48:22.973Z,58.65
2022-12-18T22:51:25.529Z,68.15
2022-12-18T22:54:27.960Z,51.60
2022-12-18T22:57:30.117Z,59.33
2022-12-18T23:00:32.996Z,62.47
2022-12-18T23:03:35.910Z,64.93
2022-12-18T23:06:40.262Z,50.45
2022-12-18T23:09:42.413Z,51.53
2022-12-18T23:12:44.764Z,57.28
2022-12-18T23:15:47.445Z,48.38
2022-12-18T23:18:55.322Z,70.12
2022-12-18T23:21:58.734Z,57.35
2022-12-18T23:25:01.158Z,54.92
2022-12-18T23:28:03.909Z,62.22
2022-12-18T23:31:12.256Z,59.20
2022-12-18T23:34:17.988Z,49.72
2022-12-18T23:37:42.340Z,64.80
2022-12-18T23:40:42.874Z,58.47
2022-12-18T23:43:47.608Z,56.13
2022-12-18T23:46:50.614Z,71.60
2022-12-18T23:49:53.111Z,59.67
2022-12-18T23:52:55.504Z,57.40
2022-12-18T23:55:59.683Z,55.65
2022-12-18T23:59:01.850Z,54.58
